createdAt,value
2023-04-16T00:00:08.477Z,100565.59
2023-04-16T00:03:13.846Z,100546.09
2023-04-16T00:06:16.641Z,100566.69
2023-04-16T00:09:19.108Z,100569.78
2023-04-16T00:12:21.600Z,100565.75
2023-04-16T00:15:23.939Z,100566.31
2023-04-16T00:18:26.330Z,100567.94
2023-04-16T00:21:28.875Z,100569.69
2023-04-16T00:24:31.214Z,100578.78
2023-04-16T00:27:34.294Z,100565.78
2023-04-16T00:30:36.845Z,100577.28
2023-04-16T00:33:39.520Z,100566.25
2023-04-16T00:36:41.945Z,100577.22
2023-04-16T00:39:44.367Z,100569.09
2023-04-16T00:42:46.954Z,100576.41
2023-04-16T00:45:49.443Z,100572.63
2023-04-16T00:48:54.341Z,100572.03
2023-04-16T00:51:56.779Z,100576.28
2023-04-16T00:54:59.646Z,100575.94
2023-04-16T00:58:02.088Z,100577.41
2023-04-16T01:01:04.522Z,100585.59
2023-04-16T01:04:07.367Z,100579.16
2023-04-16T01:07:09.805Z,100584.66
2023-04-16T01:10:12.880Z,100574.47
2023-04-16T01:13:15.431Z,100575.13
2023-04-16T01:16:18.511Z,100580.63
2023-04-16T01:19:20.982Z,100585.56
2023-04-16T01:22:23.316Z,100585.81
2023-04-16T01:25:25.707Z,100578.50
2023-04-16T01:28:28.210Z,100590.97
2023-04-16T01:31:30.529Z,100581.13
2023-04-16T01:34:56.198Z,100587.63
2023-04-16T01:37:58.661Z,100588.47
2023-04-16T01:41:02.174Z,100584.09
2023-04-16T01:44:04.836Z,100584.50
2023-04-16T01:47:07.256Z,100579.16
2023-04-16T01:50:10.147Z,100587.78
2023-04-16T01:53:12.522Z,100584.06
2023-04-16T01:56:14.844Z,100587.41
2023-04-16T01:59:17.258Z,100578.88
2023-04-16T02:02:19.652Z,100586.03
2023-04-16T02:05:22.096Z,100594.97
2023-04-16T02:08:24.412Z,100587.81
2023-04-16T02:11:26.888Z,100596.88
2023-04-16T02:14:30.843Z,100589.13
2023-04-16T02:17:33.346Z,100580.09
2023-04-16T02:20:47.355Z,100603.25
2023-04-16T02:23:52.104Z,100593.66
2023-04-16T02:27:01.048Z,100598.91
2023-04-16T02:30:04.543Z,100597.34
2023-04-16T02:33:10.771Z,100604.19
2023-04-16T02:36:15.660Z,100589.22
2023-04-16T02:39:18.069Z,100590.28
2023-04-16T02:42:20.704Z,100605.09
2023-04-16T02:45:23.332Z,100612.16
2023-04-16T02:48:25.872Z,100593.16
2023-04-16T02:51:28.270Z,100607.00
2023-04-16T02:54:30.598Z,100601.78
2023-04-16T02:57:33.432Z,100603.47
2023-04-16T03:00:35.827Z,100600.97
2023-04-16T03:03:38.199Z,100610.53
2023-04-16T03:06:40.646Z,100610.69
2023-04-16T03:09:43.395Z,100612.47
2023-04-16T03:12:45.837Z,100610.91
2023-04-16T03:15:51.140Z,100618.00
2023-04-16T03:18:53.781Z,100628.91
2023-04-16T03:21:56.339Z,100626.28
2023-04-16T03:24:58.909Z,100630.31
2023-04-16T03:28:03.839Z,100628.84
2023-04-16T03:31:06.540Z,100633.25
2023-04-16T03:34:10.881Z,100638.25
2023-04-16T03:37:15.565Z,100631.94
2023-04-16T03:40:18.146Z,100645.50
2023-04-16T03:43:20.767Z,100633.34
2023-04-16T03:46:23.477Z,100640.56
2023-04-16T03:49:25.967Z,100650.09
2023-04-16T03:52:28.651Z,100632.94
2023-04-16T03:55:31.963Z,100648.25
2023-04-16T03:58:34.415Z,100655.59
2023-04-16T04:01:36.877Z,100653.16
2023-04-16T04:04:41.257Z,100646.41
2023-04-16T04:07:45.286Z,100665.91
2023-04-16T04:10:51.214Z,100652.59
2023-04-16T04:13:55.515Z,100671.00
2023-04-16T04:16:57.955Z,100674.94
2023-04-16T04:20:01.779Z,100670.09
2023-04-16T04:23:06.419Z,100675.53
2023-04-16T04:26:09.352Z,100681.59
2023-04-16T04:29:12.027Z,100683.94
2023-04-16T04:32:14.712Z,100669.34
2023-04-16T04:35:17.618Z,100683.50
2023-04-16T04:38:22.132Z,100689.03
2023-04-16T04:41:27.140Z,100688.22
2023-04-16T04:44:29.615Z,100691.53
2023-04-16T04:47:32.532Z,100687.38
2023-04-16T04:50:34.836Z,100691.88
2023-04-16T04:53:38.369Z,100692.69
2023-04-16T04:56:41.348Z,100692.91
2023-04-16T04:59:43.693Z,100698.81
2023-04-16T05:02:47.787Z,100699.03
2023-04-16T05:05:50.156Z,100691.22
2023-04-16T05:08:52.655Z,100697.63
2023-04-16T05:11:55.027Z,100702.59
2023-04-16T05:14:57.575Z,100706.13
2023-04-16T05:18:00.146Z,100714.41
2023-04-16T05:21:02.779Z,100707.28
2023-04-16T05:24:05.638Z,100713.38
2023-04-16T05:27:07.974Z,100718.78
2023-04-16T05:30:10.909Z,100724.81
2023-04-16T05:33:13.322Z,100721.28
2023-04-16T05:36:15.927Z,100726.19
2023-04-16T05:39:18.881Z,100726.38
2023-04-16T05:42:21.356Z,100730.63
2023-04-16T05:45:24.482Z,100724.25
2023-04-16T05:48:27.517Z,100726.94
2023-04-16T05:51:30.026Z,100730.31
2023-04-16T05:54:32.478Z,100720.97
2023-04-16T05:57:34.920Z,100727.03
2023-04-16T06:00:37.397Z,100724.50
2023-04-16T06:03:39.876Z,100733.41
2023-04-16T06:06:42.493Z,100737.03
2023-04-16T06:09:45.827Z,100740.34
2023-04-16T06:12:48.201Z,100747.53
2023-04-16T06:15:50.802Z,100736.31
2023-04-16T06:18:53.229Z,100750.44
2023-04-16T06:21:55.940Z,100740.00
2023-04-16T06:24:58.354Z,100758.34
2023-04-16T06:28:00.786Z,100757.59
2023-04-16T06:31:03.267Z,100757.06
2023-04-16T06:34:05.867Z,100762.38
2023-04-16T06:37:10.516Z,100756.69
2023-04-16T06:40:13.541Z,100758.66
2023-04-16T06:43:16.167Z,100763.91
2023-04-16T06:46:18.599Z,100765.66
2023-04-16T06:49:22.165Z,100761.56
2023-04-16T06:52:24.475Z,100769.09
2023-04-16T06:55:27.118Z,100770.44
2023-04-16T06:58:29.643Z,100776.47
2023-04-16T07:01:32.106Z,100785.09
2023-04-16T07:04:34.801Z,100775.06
2023-04-16T07:07:37.216Z,100779.16
2023-04-16T07:10:39.585Z,100774.41
2023-04-16T07:13:41.901Z,100776.50
2023-04-16T07:16:44.420Z,100778.84
2023-04-16T07:19:47.192Z,100747.41
2023-04-16T07:22:50.145Z,100776.78
2023-04-16T07:25:53.219Z,100788.59
2023-04-16T07:28:55.662Z,100788.59
2023-04-16T07:31:58.686Z,100764.38
2023-04-16T07:35:01.379Z,100784.97
2023-04-16T07:38:06.115Z,100775.91
2023-04-16T07:41:08.864Z,100774.78
2023-04-16T07:44:11.262Z,100762.75
2023-04-16T07:47:13.863Z,100799.69
2023-04-16T07:50:16.513Z,100798.88
2023-04-16T07:53:18.972Z,100793.41
2023-04-16T07:56:21.652Z,100796.94
2023-04-16T07:59:24.634Z,100795.03
2023-04-16T08:02:27.780Z,100795.31
2023-04-16T08:05:30.685Z,100797.66
2023-04-16T08:08:33.029Z,100797.72
2023-04-16T08:11:35.476Z,100797.41
2023-04-16T08:14:37.833Z,100803.63
2023-04-16T08:17:40.170Z,100809.13
2023-04-16T08:20:43.383Z,100807.88
2023-04-16T08:23:45.813Z,100809.19
2023-04-16T08:26:48.858Z,100810.13
2023-04-16T08:29:51.294Z,100819.06
2023-04-16T08:32:55.517Z,100821.28
2023-04-16T08:36:00.192Z,100793.03
2023-04-16T08:39:04.993Z,100818.44
2023-04-16T08:42:13.783Z,100831.97
2023-04-16T08:45:18.390Z,100833.41
2023-04-16T08:48:22.159Z,100845.00
2023-04-16T08:51:24.720Z,100850.84
2023-04-16T08:54:40.289Z,100853.75
2023-04-16T08:58:00.835Z,100854.16
2023-04-16T09:01:06.866Z,100857.16
2023-04-16T09:04:10.025Z,100855.28
2023-04-16T09:07:12.908Z,100862.41
2023-04-16T09:10:16.573Z,100859.81
2023-04-16T09:13:20.641Z,100855.50
2023-04-16T09:16:23.276Z,100858.09
2023-04-16T09:19:25.671Z,100859.19
2023-04-16T09:22:28.225Z,100858.75
2023-04-16T09:25:38.659Z,100864.16
2023-04-16T09:28:48.789Z,100865.53
2023-04-16T09:32:03.800Z,100871.56
2023-04-16T09:35:06.372Z,100864.97
2023-04-16T09:38:08.724Z,100881.63
2023-04-16T09:41:11.109Z,100881.97
2023-04-16T09:44:13.727Z,100882.50
2023-04-16T09:47:16.136Z,100882.22
2023-04-16T09:50:20.190Z,100874.84
2023-04-16T09:53:27.087Z,100881.66
2023-04-16T09:56:30.576Z,100886.88
2023-04-16T09:59:34.393Z,100895.88
2023-04-16T10:02:39.420Z,100903.25
2023-04-16T10:05:42.692Z,100893.94
2023-04-16T10:08:49.668Z,100896.41
2023-04-16T10:11:52.738Z,100902.09
2023-04-16T10:14:55.190Z,100909.94
2023-04-16T10:17:58.442Z,100901.19
2023-04-16T10:21:01.078Z,100907.16
2023-04-16T10:24:04.575Z,100898.88
2023-04-16T10:27:07.319Z,100899.94
2023-04-16T10:30:10.798Z,100906.28
2023-04-16T10:33:13.387Z,100893.69
2023-04-16T10:36:17.835Z,100910.22
2023-04-16T10:39:22.713Z,100904.75
2023-04-16T10:42:26.349Z,100916.25
2023-04-16T10:45:33.094Z,100914.66
2023-04-16T10:48:48.754Z,100908.94
2023-04-16T10:52:03.308Z,100919.59
2023-04-16T10:55:06.396Z,100919.81
2023-04-16T10:58:27.983Z,100930.13
2023-04-16T11:01:37.158Z,100920.53
2023-04-16T11:04:41.063Z,100927.06
2023-04-16T11:07:49.756Z,100925.88
2023-04-16T11:10:52.668Z,100930.22
2023-04-16T11:13:56.904Z,100931.53
2023-04-16T11:16:59.233Z,100934.53
2023-04-16T11:20:02.185Z,100937.03
2023-04-16T11:23:04.669Z,100943.28
2023-04-16T11:26:07.071Z,100951.81
2023-04-16T11:29:15.708Z,100962.72
2023-04-16T11:32:22.852Z,100951.38
2023-04-16T11:35:25.366Z,100956.72
2023-04-16T11:38:37.607Z,100956.22
2023-04-16T11:41:44.248Z,100962.00
2023-04-16T11:44:46.635Z,100954.34
2023-04-16T11:47:55.634Z,100951.34
2023-04-16T11:50:59.025Z,100968.66
2023-04-16T11:54:02.775Z,100967.72
2023-04-16T11:57:05.687Z,100972.63
2023-04-16T12:00:14.171Z,100961.91
2023-04-16T12:03:16.882Z,100974.38
2023-04-16T12:06:19.295Z,100975.72
2023-04-16T12:09:26.149Z,100971.41
2023-04-16T12:12:31.690Z,100975.81
2023-04-16T12:15:57.094Z,100972.97
2023-04-16T12:19:04.326Z,100977.69
2023-04-16T12:22:06.845Z,100980.06
2023-04-16T12:25:13.496Z,100974.88
2023-04-16T12:28:16.713Z,100982.44
2023-04-16T12:31:20.522Z,100981.56
2023-04-16T12:34:29.084Z,100977.09
2023-04-16T12:37:45.558Z,100980.22
2023-04-16T12:40:48.190Z,100981.50
2023-04-16T12:43:50.702Z,100983.00
2023-04-16T12:46:53.047Z,100984.00
2023-04-16T12:49:58.029Z,100973.22
2023-04-16T12:53:00.582Z,100993.44
2023-04-16T12:56:02.955Z,100994.25
2023-04-16T12:59:05.452Z,100992.66
2023-04-16T13:02:07.954Z,100995.44
2023-04-16T13:05:10.684Z,100990.59
2023-04-16T13:08:13.061Z,100990.59
2023-04-16T13:11:15.824Z,100993.44
2023-04-16T13:14:18.227Z,101006.31
2023-04-16T13:17:20.611Z,101004.00
2023-04-16T13:20:24.512Z,101001.84
2023-04-16T13:23:27.309Z,100999.50
2023-04-16T13:26:29.717Z,100999.75
2023-04-16T13:29:32.417Z,101004.69
2023-04-16T13:32:34.821Z,101004.81
2023-04-16T13:35:37.440Z,101002.41
2023-04-16T13:38:39.873Z,100999.91
2023-04-16T13:41:42.434Z,100965.13
2023-04-16T13:44:48.904Z,101004.81
2023-04-16T13:47:51.407Z,101000.72
2023-04-16T13:50:53.807Z,101005.75
2023-04-16T13:53:56.371Z,101004.03
2023-04-16T13:56:58.748Z,101005.16
2023-04-16T14:00:01.222Z,101004.06
2023-04-16T14:03:06.062Z,101000.59
2023-04-16T14:06:08.759Z,101009.09
2023-04-16T14:09:12.113Z,100986.19
2023-04-16T14:12:14.753Z,101008.31
2023-04-16T14:15:17.178Z,101010.00
2023-04-16T14:18:19.580Z,101005.88
2023-04-16T14:21:22.023Z,100972.97
2023-04-16T14:24:24.491Z,101007.97
2023-04-16T14:27:27.620Z,101001.06
2023-04-16T14:30:30.374Z,101012.00
2023-04-16T14:33:33.122Z,101009.94
2023-04-16T14:36:36.672Z,101015.91
2023-04-16T14:39:39.449Z,101017.56
2023-04-16T14:42:42.401Z,101009.78
2023-04-16T14:45:45.048Z,101016.50
2023-04-16T14:48:48.231Z,101008.31
2023-04-16T14:51:52.442Z,101013.78
2023-04-16T14:54:56.042Z,101006.94
2023-04-16T14:57:59.812Z,101017.47
2023-04-16T15:01:02.650Z,101019.59
2023-04-16T15:04:05.390Z,101030.69
2023-04-16T15:07:10.225Z,101008.16
2023-04-16T15:10:13.372Z,101032.75
2023-04-16T15:13:16.577Z,101031.03
2023-04-16T15:16:20.254Z,101031.75
2023-04-16T15:19:23.213Z,101031.47
2023-04-16T15:22:25.826Z,101032.38
2023-04-16T15:25:28.643Z,101037.84
2023-04-16T15:28:31.781Z,101032.91
2023-04-16T15:31:34.326Z,101044.47
2023-04-16T15:34:36.697Z,101037.09
2023-04-16T15:37:39.364Z,101025.06
2023-04-16T15:40:41.826Z,101028.63
2023-04-16T15:43:45.166Z,101041.13
2023-04-16T15:46:47.772Z,101042.41
2023-04-16T15:49:50.359Z,101045.31
2023-04-16T15:52:52.781Z,101057.59
2023-04-16T15:55:55.542Z,101046.00
2023-04-16T15:58:57.949Z,101054.16
2023-04-16T16:02:01.282Z,101058.63
2023-04-16T16:05:04.843Z,101062.47
2023-04-16T16:08:07.389Z,101067.13
2023-04-16T16:11:09.880Z,101070.00
2023-04-16T16:14:12.391Z,101067.63
2023-04-16T16:17:15.077Z,101070.31
2023-04-16T16:20:17.439Z,101073.03
2023-04-16T16:23:19.896Z,101077.41
2023-04-16T16:26:23.153Z,101065.31
2023-04-16T16:29:25.786Z,101074.66
2023-04-16T16:32:28.309Z,101071.34
2023-04-16T16:35:32.776Z,101079.06
2023-04-16T16:38:35.262Z,101067.75
2023-04-16T16:41:42.158Z,101077.66
2023-04-16T16:44:46.979Z,101083.81
2023-04-16T16:47:49.434Z,101079.19
2023-04-16T16:50:52.111Z,101090.09
2023-04-16T16:53:54.559Z,101090.41
2023-04-16T16:56:57.120Z,101087.25
2023-04-16T16:59:59.897Z,101086.44
2023-04-16T17:03:02.459Z,101093.91
2023-04-16T17:06:05.327Z,101091.28
2023-04-16T17:09:08.057Z,101092.75
2023-04-16T17:12:10.868Z,101092.09
2023-04-16T17:15:13.408Z,101095.31
2023-04-16T17:18:16.299Z,101094.44
2023-04-16T17:21:19.012Z,101102.34
2023-04-16T17:24:21.641Z,101109.03
2023-04-16T17:27:24.434Z,101113.81
2023-04-16T17:30:28.221Z,101117.41
2023-04-16T17:33:30.828Z,101118.44
2023-04-16T17:36:33.617Z,101124.47
2023-04-16T17:39:36.091Z,101114.69
2023-04-16T17:42:39.541Z,101120.72
2023-04-16T17:45:42.414Z,101124.59
2023-04-16T17:48:45.017Z,101127.47
2023-04-16T17:51:47.705Z,101137.53
2023-04-16T17:54:50.525Z,101126.00
2023-04-16T17:57:53.051Z,101150.41
2023-04-16T18:00:56.591Z,101145.91
2023-04-16T18:03:59.470Z,101145.38
2023-04-16T18:07:02.089Z,101161.34
2023-04-16T18:10:05.249Z,101159.28
2023-04-16T18:13:07.787Z,101168.34
2023-04-16T18:16:17.233Z,101163.91
2023-04-16T18:19:19.949Z,101159.28
2023-04-16T18:22:22.378Z,101175.34
2023-04-16T18:25:33.964Z,101172.28
2023-04-16T18:28:38.296Z,101182.94
2023-04-16T18:31:41.139Z,101179.03
2023-04-16T18:34:44.363Z,101169.47
2023-04-16T18:37:47.608Z,101188.31
2023-04-16T18:40:50.103Z,101188.09
2023-04-16T18:43:52.599Z,101197.44
2023-04-16T18:46:55.106Z,101195.53
2023-04-16T18:49:57.562Z,101194.31
2023-04-16T18:53:00.041Z,101194.63
2023-04-16T18:56:02.634Z,101193.34
2023-04-16T18:59:05.081Z,101195.75
2023-04-16T19:02:07.761Z,101199.38
2023-04-16T19:05:11.409Z,101195.84
2023-04-16T19:08:14.074Z,101194.56
2023-04-16T19:11:16.418Z,101193.94
2023-04-16T19:14:19.021Z,101186.78
2023-04-16T19:17:21.411Z,101187.81
2023-04-16T19:20:23.868Z,101191.41
2023-04-16T19:23:26.364Z,101188.16
2023-04-16T19:26:28.739Z,101189.63
2023-04-16T19:29:34.783Z,101189.97
2023-04-16T19:32:37.510Z,101179.38
2023-04-16T19:35:43.403Z,101180.06
2023-04-16T19:38:45.908Z,101186.31
2023-04-16T19:41:48.236Z,101182.03
2023-04-16T19:44:50.885Z,101179.47
2023-04-16T19:47:53.665Z,101190.59
2023-04-16T19:50:56.287Z,101172.91
2023-04-16T19:53:59.132Z,101183.03
2023-04-16T19:57:01.681Z,101189.78
2023-04-16T20:00:05.960Z,101177.50
2023-04-16T20:03:08.563Z,101182.81
2023-04-16T20:06:11.158Z,101187.78
2023-04-16T20:09:13.807Z,101187.09
2023-04-16T20:12:16.418Z,101184.84
2023-04-16T20:15:19.323Z,101196.31
2023-04-16T20:18:22.352Z,101189.13
2023-04-16T20:21:25.350Z,101196.31
2023-04-16T20:24:31.120Z,101195.69
2023-04-16T20:27:34.389Z,101198.44
2023-04-16T20:30:39.994Z,101199.63
2023-04-16T20:33:42.416Z,101197.59
2023-04-16T20:36:45.371Z,101206.59
2023-04-16T20:39:50.266Z,101201.28
2023-04-16T20:42:52.723Z,101208.84
2023-04-16T20:45:55.039Z,101211.66
2023-04-16T20:48:57.435Z,101213.78
2023-04-16T20:51:59.842Z,101213.56
2023-04-16T20:55:03.828Z,101219.81
2023-04-16T20:58:06.567Z,101218.88
2023-04-16T21:01:08.921Z,101215.34
2023-04-16T21:04:11.425Z,101212.13
2023-04-16T21:07:14.190Z,101225.25
2023-04-16T21:10:20.373Z,101228.44
2023-04-16T21:13:23.045Z,101226.19
2023-04-16T21:16:25.546Z,101221.47
2023-04-16T21:19:27.870Z,101231.50
2023-04-16T21:22:30.285Z,101235.41
2023-04-16T21:25:33.562Z,101236.34
2023-04-16T21:28:36.196Z,101240.59
2023-04-16T21:31:38.483Z,101237.44
2023-04-16T21:34:40.937Z,101233.88
2023-04-16T21:37:43.251Z,101235.41
2023-04-16T21:40:51.064Z,101231.25
2023-04-16T21:43:53.414Z,101228.06
2023-04-16T21:46:55.816Z,101226.34
2023-04-16T21:49:58.142Z,101218.19
2023-04-16T21:53:00.576Z,101222.31
2023-04-16T21:56:03.847Z,101236.22
2023-04-16T21:59:06.535Z,101232.81
2023-04-16T22:02:09.009Z,101240.59
2023-04-16T22:05:12.265Z,101227.72
2023-04-16T22:08:24.188Z,101234.09
2023-04-16T22:11:28.410Z,101235.41
2023-04-16T22:14:32.027Z,101248.72
2023-04-16T22:17:34.880Z,101243.41
2023-04-16T22:20:39.342Z,101235.97
2023-04-16T22:23:41.755Z,101235.03
2023-04-16T22:26:44.053Z,101229.25
2023-04-16T22:29:46.467Z,101226.19
2023-04-16T22:32:48.945Z,101229.00
2023-04-16T22:35:51.292Z,101237.72
2023-04-16T22:38:53.848Z,101237.50
2023-04-16T22:41:56.256Z,101214.00
2023-04-16T22:44:58.586Z,101243.03
2023-04-16T22:48:01.221Z,101236.69
2023-04-16T22:51:04.458Z,101219.53
2023-04-16T22:54:07.951Z,101248.72
2023-04-16T22:57:10.319Z,101244.72
2023-04-16T23:00:18.013Z,101248.44
2023-04-16T23:03:20.557Z,101246.94
2023-04-16T23:06:22.941Z,101246.47
2023-04-16T23:09:25.659Z,101253.19
2023-04-16T23:12:27.916Z,101253.38
2023-04-16T23:15:30.546Z,101247.56
2023-04-16T23:18:32.790Z,101243.72
2023-04-16T23:21:35.130Z,101255.31
2023-04-16T23:24:37.395Z,101258.69
2023-04-16T23:27:39.749Z,101256.66
2023-04-16T23:30:42.282Z,101251.94
2023-04-16T23:33:44.589Z,101251.66
2023-04-16T23:36:46.881Z,101253.25
2023-04-16T23:39:49.188Z,101255.03
2023-04-16T23:42:51.507Z,101262.00
2023-04-16T23:45:53.882Z,101262.47
2023-04-16T23:48:56.314Z,101238.63
2023-04-16T23:51:58.740Z,101254.44
2023-04-16T23:55:01.084Z,101247.56
2023-04-16T23:58:03.375Z,101248.59
